sensor_id;sensor_type;location;lat;lon;timestamp;P1;durP1;ratioP1;P2;durP2;ratioP2
15077;SDS011;7638;49.760;8.646;2022-11-21T00:00:56;5.10;;;1.77;;
15077;SDS011;7638;49.760;8.646;2022-11-21T00:03:22;5.60;;;1.53;;
15077;SDS011;7638;49.760;8.646;2022-11-21T00:05:48;4.93;;;1.80;;
15077;SDS011;7638;49.760;8.646;2022-11-21T00:08:16;4.33;;;1.73;;
15077;SDS011;7638;49.760;8.646;2022-11-21T00:10:42;4.13;;;1.70;;
15077;SDS011;7638;49.760;8.646;2022-11-21T00:13:18;5.57;;;1.60;;
15077;SDS011;7638;49.760;8.646;2022-11-21T00:15:45;5.27;;;1.70;;
15077;SDS011;7638;49.760;8.646;2022-11-21T00:18:11;5.67;;;1.83;;
15077;SDS011;7638;49.760;8.646;2022-11-21T00:20:38;7.00;;;1.70;;
15077;SDS011;7638;49.760;8.646;2022-11-21T00:23:04;6.90;;;1.60;;
15077;SDS011;7638;49.760;8.646;2022-11-21T00:25:30;4.87;;;1.83;;
15077;SDS011;7638;49.760;8.646;2022-11-21T00:27:56;8.77;;;2.57;;
15077;SDS011;7638;49.760;8.646;2022-11-21T00:30:22;6.57;;;2.30;;
15077;SDS011;7638;49.760;8.646;2022-11-21T00:32:53;5.13;;;2.03;;
15077;SDS011;7638;49.760;8.646;2022-11-21T00:35:19;7.03;;;1.47;;
15077;SDS011;7638;49.760;8.646;2022-11-21T00:37:45;8.07;;;1.60;;
15077;SDS011;7638;49.760;8.646;2022-11-21T00:40:12;10.17;;;2.07;;
15077;SDS011;7638;49.760;8.646;2022-11-21T00:42:38;8.10;;;2.27;;
15077;SDS011;7638;49.760;8.646;2022-11-21T00:45:05;5.07;;;1.77;;
15077;SDS011;7638;49.760;8.646;2022-11-21T00:47:31;8.10;;;2.03;;
15077;SDS011;7638;49.760;8.646;2022-11-21T00:49:57;6.00;;;2.00;;
15077;SDS011;7638;49.760;8.646;2022-11-21T00:52:23;10.23;;;2.27;;
15077;SDS011;7638;49.760;8.646;2022-11-21T00:54:49;10.00;;;2.30;;
15077;SDS011;7638;49.760;8.646;2022-11-21T00:57:15;5.30;;;2.03;;
15077;SDS011;7638;49.760;8.646;2022-11-21T00:59:41;7.50;;;2.00;;
15077;SDS011;7638;49.760;8.646;2022-11-21T01:02:10;3.90;;;2.03;;
15077;SDS011;7638;49.760;8.646;2022-11-21T01:04:37;9.77;;;2.17;;
15077;SDS011;7638;49.760;8.646;2022-11-21T01:07:03;7.60;;;2.17;;
15077;SDS011;7638;49.760;8.646;2022-11-21T01:09:29;9.50;;;2.17;;
15077;SDS011;7638;49.760;8.646;2022-11-21T01:11:55;8.70;;;1.87;;
15077;SDS011;7638;49.760;8.646;2022-11-21T01:14:22;5.40;;;2.20;;
15077;SDS011;7638;49.760;8.646;2022-11-21T01:16:48;5.37;;;2.10;;
15077;SDS011;7638;49.760;8.646;2022-11-21T01:19:14;7.77;;;1.97;;
15077;SDS011;7638;49.760;8.646;2022-11-21T01:21:40;8.33;;;2.00;;
15077;SDS011;7638;49.760;8.646;2022-11-21T01:24:06;6.50;;;1.93;;
15077;SDS011;7638;49.760;8.646;2022-11-21T01:26:32;8.67;;;2.07;;
15077;SDS011;7638;49.760;8.646;2022-11-21T01:28:58;3.33;;;1.47;;
15077;SDS011;7638;49.760;8.646;2022-11-21T01:31:25;3.87;;;1.50;;
15077;SDS011;7638;49.760;8.646;2022-11-21T01:33:52;5.07;;;1.90;;
15077;SDS011;7638;49.760;8.646;2022-11-21T01:36:19;4.17;;;1.60;;
15077;SDS011;7638;49.760;8.646;2022-11-21T01:38:46;5.00;;;1.70;;
15077;SDS011;7638;49.760;8.646;2022-11-21T01:41:14;5.43;;;1.50;;
15077;SDS011;7638;49.760;8.646;2022-11-21T01:43:40;8.90;;;1.77;;
15077;SDS011;7638;49.760;8.646;2022-11-21T01:53:39;5.07;;;1.50;;
15077;SDS011;7638;49.760;8.646;2022-11-21T01:56:07;11.13;;;2.20;;
15077;SDS011;7638;49.760;8.646;2022-11-21T01:58:34;7.60;;;1.83;;
15077;SDS011;7638;49.760;8.646;2022-11-21T02:01:03;9.60;;;2.43;;
15077;SDS011;7638;49.760;8.646;2022-11-21T02:03:31;6.53;;;2.20;;
15077;SDS011;7638;49.760;8.646;2022-11-21T02:05:58;6.90;;;1.90;;
15077;SDS011;7638;49.760;8.646;2022-11-21T02:08:25;5.10;;;1.60;;
15077;SDS011;7638;49.760;8.646;2022-11-21T02:13:27;7.33;;;2.50;;
15077;SDS011;7638;49.760;8.646;2022-11-21T02:15:53;5.57;;;1.57;;
15077;SDS011;7638;49.760;8.646;2022-11-21T02:18:19;6.07;;;1.60;;
15077;SDS011;7638;49.760;8.646;2022-11-21T02:20:46;11.53;;;1.70;;
15077;SDS011;7638;49.760;8.646;2022-11-21T02:25:43;6.80;;;1.80;;
15077;SDS011;7638;49.760;8.646;2022-11-21T02:28:13;8.57;;;1.63;;
15077;SDS011;7638;49.760;8.646;2022-11-21T02:30:40;4.50;;;2.17;;
15077;SDS011;7638;49.760;8.646;2022-11-21T02:33:06;5.50;;;1.70;;
15077;SDS011;7638;49.760;8.646;2022-11-21T02:35:33;7.17;;;2.20;;
15077;SDS011;7638;49.760;8.646;2022-11-21T02:38:00;4.30;;;1.47;;
15077;SDS011;7638;49.760;8.646;2022-11-21T02:40:28;5.40;;;1.80;;
15077;SDS011;7638;49.760;8.646;2022-11-21T02:43:02;5.77;;;2.00;;
15077;SDS011;7638;49.760;8.646;2022-11-21T02:45:38;4.63;;;1.77;;
15077;SDS011;7638;49.760;8.646;2022-11-21T02:48:04;6.00;;;1.60;;
15077;SDS011;7638;49.760;8.646;2022-11-21T02:50:32;7.23;;;1.93;;
15077;SDS011;7638;49.760;8.646;2022-11-21T02:52:58;2.67;;;1.40;;
15077;SDS011;7638;49.760;8.646;2022-11-21T02:55:24;3.40;;;1.33;;
15077;SDS011;7638;49.760;8.646;2022-11-21T02:57:50;7.50;;;1.67;;
15077;SDS011;7638;49.760;8.646;2022-11-21T03:00:17;7.17;;;1.53;;
15077;SDS011;7638;49.760;8.646;2022-11-21T03:02:43;8.40;;;1.70;;
15077;SDS011;7638;49.760;8.646;2022-11-21T03:05:10;7.47;;;1.63;;
15077;SDS011;7638;49.760;8.646;2022-11-21T03:07:36;5.53;;;1.80;;
15077;SDS011;7638;49.760;8.646;2022-11-21T03:10:02;7.87;;;1.53;;
15077;SDS011;7638;49.760;8.646;2022-11-21T03:12:28;5.23;;;1.40;;
15077;SDS011;7638;49.760;8.646;2022-11-21T03:14:54;6.23;;;1.50;;
15077;SDS011;7638;49.760;8.646;2022-11-21T03:17:20;2.97;;;1.40;;
15077;SDS011;7638;49.760;8.646;2022-11-21T03:19:46;2.10;;;1.23;;
15077;SDS011;7638;49.760;8.646;2022-11-21T03:22:13;6.30;;;2.07;;
15077;SDS011;7638;49.760;8.646;2022-11-21T03:24:39;4.27;;;1.87;;
15077;SDS011;7638;49.760;8.646;2022-11-21T03:27:05;5.77;;;1.20;;
15077;SDS011;7638;49.760;8.646;2022-11-21T03:29:31;5.50;;;1.20;;
15077;SDS011;7638;49.760;8.646;2022-11-21T03:31:57;3.30;;;1.43;;
15077;SDS011;7638;49.760;8.646;2022-11-21T03:34:23;5.17;;;1.77;;
15077;SDS011;7638;49.760;8.646;2022-11-21T03:36:49;3.17;;;1.43;;
15077;SDS011;7638;49.760;8.646;2022-11-21T03:39:15;10.70;;;1.40;;
15077;SDS011;7638;49.760;8.646;2022-11-21T03:41:41;2.53;;;1.63;;
15077;SDS011;7638;49.760;8.646;2022-11-21T03:44:08;4.87;;;1.20;;
15077;SDS011;7638;49.760;8.646;2022-11-21T03:46:36;2.73;;;1.57;;
15077;SDS011;7638;49.760;8.646;2022-11-21T03:49:02;5.20;;;2.03;;
15077;SDS011;7638;49.760;8.646;2022-11-21T03:51:28;3.33;;;1.50;;
15077;SDS011;7638;49.760;8.646;2022-11-21T03:53:54;4.10;;;1.60;;
15077;SDS011;7638;49.760;8.646;2022-11-21T03:56:20;7.67;;;1.77;;
15077;SDS011;7638;49.760;8.646;2022-11-21T03:58:46;2.67;;;1.13;;
15077;SDS011;7638;49.760;8.646;2022-11-21T04:01:12;2.47;;;1.57;;
15077;SDS011;7638;49.760;8.646;2022-11-21T04:03:40;2.67;;;1.50;;
15077;SDS011;7638;49.760;8.646;2022-11-21T04:06:06;11.53;;;1.63;;
15077;SDS011;7638;49.760;8.646;2022-11-21T04:08:32;4.93;;;1.60;;
15077;SDS011;7638;49.760;8.646;2022-11-21T04:10:58;5.50;;;1.60;;
15077;SDS011;7638;49.760;8.646;2022-11-21T04:13:24;3.27;;;1.23;;
15077;SDS011;7638;49.760;8.646;2022-11-21T04:15:50;2.17;;;1.27;;
15077;SDS011;7638;49.760;8.646;2022-11-21T04:18:16;3.67;;;1.30;;
15077;SDS011;7638;49.760;8.646;2022-11-21T04:20:42;4.30;;;1.63;;
15077;SDS011;7638;49.760;8.646;2022-11-21T04:23:08;5.90;;;1.53;;
15077;SDS011;7638;49.760;8.646;2022-11-21T04:25:35;8.37;;;1.27;;
15077;SDS011;7638;49.760;8.646;2022-11-21T04:28:02;5.23;;;1.67;;
15077;SDS011;7638;49.760;8.646;2022-11-21T04:30:28;4.20;;;1.60;;
15077;SDS011;7638;49.760;8.646;2022-11-21T04:32:55;2.93;;;1.57;;
15077;SDS011;7638;49.760;8.646;2022-11-21T04:35:21;4.03;;;1.60;;
15077;SDS011;7638;49.760;8.646;2022-11-21T04:37:48;1.60;;;1.20;;
15077;SDS011;7638;49.760;8.646;2022-11-21T04:40:14;1.73;;;1.10;;
15077;SDS011;7638;49.760;8.646;2022-11-21T04:42:44;3.33;;;1.40;;
15077;SDS011;7638;49.760;8.646;2022-11-21T04:45:11;2.40;;;1.73;;
15077;SDS011;7638;49.760;8.646;2022-11-21T04:47:37;2.73;;;1.20;;
15077;SDS011;7638;49.760;8.646;2022-11-21T04:50:03;2.50;;;1.00;;
15077;SDS011;7638;49.760;8.646;2022-11-21T04:52:30;4.30;;;1.40;;
15077;SDS011;7638;49.760;8.646;2022-11-21T04:54:56;2.83;;;1.30;;
15077;SDS011;7638;49.760;8.646;2022-11-21T04:57:22;4.70;;;1.27;;
15077;SDS011;7638;49.760;8.646;2022-11-21T04:59:48;8.23;;;1.50;;
15077;SDS011;7638;49.760;8.646;2022-11-21T05:02:14;2.70;;;1.20;;
15077;SDS011;7638;49.760;8.646;2022-11-21T05:04:40;2.97;;;1.33;;
15077;SDS011;7638;49.760;8.646;2022-11-21T05:07:06;3.33;;;1.10;;
15077;SDS011;7638;49.760;8.646;2022-11-21T05:09:32;1.93;;;0.93;;
15077;SDS011;7638;49.760;8.646;2022-11-21T05:11:58;1.93;;;0.90;;
15077;SDS011;7638;49.760;8.646;2022-11-21T05:14:42;2.17;;;1.00;;
15077;SDS011;7638;49.760;8.646;2022-11-21T05:17:08;3.47;;;1.00;;
15077;SDS011;7638;49.760;8.646;2022-11-21T05:19:34;4.03;;;1.53;;
15077;SDS011;7638;49.760;8.646;2022-11-21T05:22:00;2.47;;;1.10;;
15077;SDS011;7638;49.760;8.646;2022-11-21T05:24:26;5.27;;;1.07;;
15077;SDS011;7638;49.760;8.646;2022-11-21T05:26:53;2.00;;;1.13;;
15077;SDS011;7638;49.760;8.646;2022-11-21T05:29:19;4.90;;;1.20;;
15077;SDS011;7638;49.760;8.646;2022-11-21T05:31:45;1.90;;;0.90;;
15077;SDS011;7638;49.760;8.646;2022-11-21T05:34:11;1.33;;;1.10;;
15077;SDS011;7638;49.760;8.646;2022-11-21T05:36:37;1.27;;;0.70;;
15077;SDS011;7638;49.760;8.646;2022-11-21T05:39:03;1.33;;;1.03;;
15077;SDS011;7638;49.760;8.646;2022-11-21T05:41:29;4.03;;;1.13;;
15077;SDS011;7638;49.760;8.646;2022-11-21T05:43:55;2.87;;;1.00;;
15077;SDS011;7638;49.760;8.646;2022-11-21T05:46:22;4.13;;;1.10;;
15077;SDS011;7638;49.760;8.646;2022-11-21T05:48:49;1.53;;;0.90;;
15077;SDS011;7638;49.760;8.646;2022-11-21T05:51:15;2.57;;;1.17;;
15077;SDS011;7638;49.760;8.646;2022-11-21T05:53:42;0.83;;;0.60;;
15077;SDS011;7638;49.760;8.646;2022-11-21T05:56:09;1.20;;;0.80;;
15077;SDS011;7638;49.760;8.646;2022-11-21T05:58:35;0.73;;;0.73;;
15077;SDS011;7638;49.760;8.646;2022-11-21T06:01:02;2.57;;;1.43;;
15077;SDS011;7638;49.760;8.646;2022-11-21T06:03:29;3.10;;;1.07;;
15077;SDS011;7638;49.760;8.646;2022-11-21T06:08:26;1.53;;;1.03;;
15077;SDS011;7638;49.760;8.646;2022-11-21T06:10:53;1.10;;;0.90;;
15077;SDS011;7638;49.760;8.646;2022-11-21T06:13:19;4.93;;;1.20;;
15077;SDS011;7638;49.760;8.646;2022-11-21T06:18:15;1.57;;;0.80;;
15077;SDS011;7638;49.760;8.646;2022-11-21T06:20:41;1.00;;;0.90;;
15077;SDS011;7638;49.760;8.646;2022-11-21T06:23:07;1.80;;;0.93;;
15077;SDS011;7638;49.760;8.646;2022-11-21T06:25:33;2.57;;;1.03;;
15077;SDS011;7638;49.760;8.646;2022-11-21T06:27:59;0.77;;;0.73;;
15077;SDS011;7638;49.760;8.646;2022-11-21T06:30:25;1.13;;;0.50;;
15077;SDS011;7638;49.760;8.646;2022-11-21T06:32:51;3.10;;;0.97;;
15077;SDS011;7638;49.760;8.646;2022-11-21T06:35:17;0.80;;;0.80;;
15077;SDS011;7638;49.760;8.646;2022-11-21T06:37:43;3.37;;;1.07;;
15077;SDS011;7638;49.760;8.646;2022-11-21T06:40:09;3.87;;;1.20;;
15077;SDS011;7638;49.760;8.646;2022-11-21T06:42:35;1.47;;;0.80;;
15077;SDS011;7638;49.760;8.646;2022-11-21T06:45:01;4.10;;;0.70;;
15077;SDS011;7638;49.760;8.646;2022-11-21T06:47:27;0.77;;;0.73;;
15077;SDS011;7638;49.760;8.646;2022-11-21T06:49:53;0.67;;;0.67;;
15077;SDS011;7638;49.760;8.646;2022-11-21T06:52:19;1.60;;;0.70;;
15077;SDS011;7638;49.760;8.646;2022-11-21T06:54:45;2.77;;;1.00;;
15077;SDS011;7638;49.760;8.646;2022-11-21T06:57:11;1.70;;;0.90;;
15077;SDS011;7638;49.760;8.646;2022-11-21T06:59:37;2.53;;;1.00;;
15077;SDS011;7638;49.760;8.646;2022-11-21T07:02:03;1.37;;;0.80;;
15077;SDS011;7638;49.760;8.646;2022-11-21T07:04:29;1.50;;;0.90;;
15077;SDS011;7638;49.760;8.646;2022-11-21T07:06:55;2.23;;;1.03;;
15077;SDS011;7638;49.760;8.646;2022-11-21T07:09:21;2.30;;;1.20;;
15077;SDS011;7638;49.760;8.646;2022-11-21T07:11:47;1.77;;;1.07;;
15077;SDS011;7638;49.760;8.646;2022-11-21T07:14:13;3.40;;;1.17;;
15077;SDS011;7638;49.760;8.646;2022-11-21T07:16:39;1.57;;;0.90;;
15077;SDS011;7638;49.760;8.646;2022-11-21T07:19:05;2.80;;;1.13;;
15077;SDS011;7638;49.760;8.646;2022-11-21T07:21:31;2.70;;;1.33;;
15077;SDS011;7638;49.760;8.646;2022-11-21T07:23:57;4.63;;;1.60;;
15077;SDS011;7638;49.760;8.646;2022-11-21T07:26:23;2.23;;;1.50;;
15077;SDS011;7638;49.760;8.646;2022-11-21T07:28:49;5.97;;;1.40;;
15077;SDS011;7638;49.760;8.646;2022-11-21T07:31:15;3.87;;;1.97;;
15077;SDS011;7638;49.760;8.646;2022-11-21T07:33:41;4.60;;;1.20;;
15077;SDS011;7638;49.760;8.646;2022-11-21T07:36:07;3.43;;;1.33;;
15077;SDS011;7638;49.760;8.646;2022-11-21T07:38:33;2.93;;;1.63;;
15077;SDS011;7638;49.760;8.646;2022-11-21T07:40:59;2.73;;;1.30;;
15077;SDS011;7638;49.760;8.646;2022-11-21T07:43:25;7.17;;;1.60;;
15077;SDS011;7638;49.760;8.646;2022-11-21T07:45:51;12.77;;;2.10;;
15077;SDS011;7638;49.760;8.646;2022-11-21T07:48:17;8.37;;;1.73;;
15077;SDS011;7638;49.760;8.646;2022-11-21T07:50:43;5.13;;;1.90;;
15077;SDS011;7638;49.760;8.646;2022-11-21T07:53:09;3.60;;;1.30;;
15077;SDS011;7638;49.760;8.646;2022-11-21T07:55:35;6.83;;;1.83;;
15077;SDS011;7638;49.760;8.646;2022-11-21T07:58:03;3.90;;;1.67;;
15077;SDS011;7638;49.760;8.646;2022-11-21T08:00:29;3.87;;;1.60;;
15077;SDS011;7638;49.760;8.646;2022-11-21T08:03:11;4.20;;;1.40;;
15077;SDS011;7638;49.760;8.646;2022-11-21T08:05:38;2.60;;;1.13;;
15077;SDS011;7638;49.760;8.646;2022-11-21T08:08:05;9.33;;;2.33;;
15077;SDS011;7638;49.760;8.646;2022-11-21T08:10:31;6.90;;;1.57;;
15077;SDS011;7638;49.760;8.646;2022-11-21T08:12:57;2.10;;;1.20;;
15077;SDS011;7638;49.760;8.646;2022-11-21T08:15:23;3.50;;;1.53;;
15077;SDS011;7638;49.760;8.646;2022-11-21T08:17:49;3.63;;;1.27;;
15077;SDS011;7638;49.760;8.646;2022-11-21T08:20:15;3.30;;;2.07;;
15077;SDS011;7638;49.760;8.646;2022-11-21T08:22:41;6.23;;;2.00;;
15077;SDS011;7638;49.760;8.646;2022-11-21T08:25:08;4.17;;;1.77;;
15077;SDS011;7638;49.760;8.646;2022-11-21T08:27:38;2.07;;;1.27;;
15077;SDS011;7638;49.760;8.646;2022-11-21T08:30:07;1.93;;;1.60;;
15077;SDS011;7638;49.760;8.646;2022-11-21T08:32:33;2.70;;;1.10;;
15077;SDS011;7638;49.760;8.646;2022-11-21T08:34:59;3.27;;;1.60;;
15077;SDS011;7638;49.760;8.646;2022-11-21T08:37:26;5.27;;;2.00;;
15077;SDS011;7638;49.760;8.646;2022-11-21T08:39:53;5.50;;;1.93;;
15077;SDS011;7638;49.760;8.646;2022-11-21T08:42:19;4.70;;;2.30;;
15077;SDS011;7638;49.760;8.646;2022-11-21T08:44:45;4.67;;;3.37;;
15077;SDS011;7638;49.760;8.646;2022-11-21T08:47:11;3.90;;;1.67;;
15077;SDS011;7638;49.760;8.646;2022-11-21T08:49:37;5.77;;;1.30;;
15077;SDS011;7638;49.760;8.646;2022-11-21T08:52:03;5.00;;;1.57;;
15077;SDS011;7638;49.760;8.646;2022-11-21T08:54:29;6.60;;;2.00;;
15077;SDS011;7638;49.760;8.646;2022-11-21T08:56:55;2.80;;;1.40;;
15077;SDS011;7638;49.760;8.646;2022-11-21T08:59:21;6.93;;;1.60;;
15077;SDS011;7638;49.760;8.646;2022-11-21T09:01:50;4.53;;;1.77;;
15077;SDS011;7638;49.760;8.646;2022-11-21T09:04:16;3.77;;;1.37;;
15077;SDS011;7638;49.760;8.646;2022-11-21T09:06:42;1.87;;;1.47;;
15077;SDS011;7638;49.760;8.646;2022-11-21T09:09:08;6.17;;;1.60;;
15077;SDS011;7638;49.760;8.646;2022-11-21T09:11:35;2.87;;;1.53;;
15077;SDS011;7638;49.760;8.646;2022-11-21T09:14:01;5.93;;;1.30;;
15077;SDS011;7638;49.760;8.646;2022-11-21T09:16:46;3.20;;;1.43;;
15077;SDS011;7638;49.760;8.646;2022-11-21T09:19:31;2.60;;;0.97;;
15077;SDS011;7638;49.760;8.646;2022-11-21T09:21:57;4.40;;;1.00;;
15077;SDS011;7638;49.760;8.646;2022-11-21T09:24:23;6.23;;;2.00;;
15077;SDS011;7638;49.760;8.646;2022-11-21T09:26:48;5.97;;;1.50;;
15077;SDS011;7638;49.760;8.646;2022-11-21T09:29:15;8.57;;;1.83;;
15077;SDS011;7638;49.760;8.646;2022-11-21T09:31:44;2.30;;;1.40;;
15077;SDS011;7638;49.760;8.646;2022-11-21T09:34:10;4.30;;;1.47;;
15077;SDS011;7638;49.760;8.646;2022-11-21T09:36:36;2.57;;;1.07;;
15077;SDS011;7638;49.760;8.646;2022-11-21T09:39:02;1.47;;;1.00;;
15077;SDS011;7638;49.760;8.646;2022-11-21T09:47:10;2.47;;;1.10;;
15077;SDS011;7638;49.760;8.646;2022-11-21T09:49:42;2.53;;;1.10;;
15077;SDS011;7638;49.760;8.646;2022-11-21T09:52:10;8.03;;;1.23;;
15077;SDS011;7638;49.760;8.646;2022-11-21T09:54:38;2.10;;;1.37;;
15077;SDS011;7638;49.760;8.646;2022-11-21T09:57:08;6.93;;;1.77;;
15077;SDS011;7638;49.760;8.646;2022-11-21T09:59:35;3.87;;;1.53;;
15077;SDS011;7638;49.760;8.646;2022-11-21T10:02:10;4.07;;;1.37;;
15077;SDS011;7638;49.760;8.646;2022-11-21T10:04:38;3.03;;;1.20;;
15077;SDS011;7638;49.760;8.646;2022-11-21T10:07:05;6.77;;;1.43;;
15077;SDS011;7638;49.760;8.646;2022-11-21T10:17:21;4.37;;;1.63;;
15077;SDS011;7638;49.760;8.646;2022-11-21T10:20:07;1.97;;;1.17;;
15077;SDS011;7638;49.760;8.646;2022-11-21T10:22:38;1.83;;;1.17;;
15077;SDS011;7638;49.760;8.646;2022-11-21T10:27:36;2.80;;;1.40;;
15077;SDS011;7638;49.760;8.646;2022-11-21T10:30:05;3.77;;;1.70;;
15077;SDS011;7638;49.760;8.646;2022-11-21T10:32:42;7.17;;;1.40;;
15077;SDS011;7638;49.760;8.646;2022-11-21T10:35:12;5.50;;;3.50;;
15077;SDS011;7638;49.760;8.646;2022-11-21T10:37:41;1.00;;;0.70;;
15077;SDS011;7638;49.760;8.646;2022-11-21T10:42:57;4.80;;;1.10;;
15077;SDS011;7638;49.760;8.646;2022-11-21T10:45:44;2.40;;;1.17;;
15077;SDS011;7638;49.760;8.646;2022-11-21T10:48:10;4.93;;;1.20;;
15077;SDS011;7638;49.760;8.646;2022-11-21T10:50:52;2.43;;;1.23;;
15077;SDS011;7638;49.760;8.646;2022-11-21T10:53:21;3.23;;;1.00;;
15077;SDS011;7638;49.760;8.646;2022-11-21T10:56:09;2.77;;;1.20;;
15077;SDS011;7638;49.760;8.646;2022-11-21T11:01:14;2.70;;;1.30;;
15077;SDS011;7638;49.760;8.646;2022-11-21T11:03:43;2.37;;;1.37;;
15077;SDS011;7638;49.760;8.646;2022-11-21T11:06:09;3.37;;;1.37;;
15077;SDS011;7638;49.760;8.646;2022-11-21T11:08:52;7.00;;;2.10;;
15077;SDS011;7638;49.760;8.646;2022-11-21T11:11:21;2.87;;;1.37;;
15077;SDS011;7638;49.760;8.646;2022-11-21T11:16:22;3.60;;;1.40;;
15077;SDS011;7638;49.760;8.646;2022-11-21T11:21:24;3.60;;;1.47;;
15077;SDS011;7638;49.760;8.646;2022-11-21T11:23:52;4.50;;;1.20;;
15077;SDS011;7638;49.760;8.646;2022-11-21T11:28:45;3.60;;;1.50;;
15077;SDS011;7638;49.760;8.646;2022-11-21T11:31:11;6.10;;;1.50;;
15077;SDS011;7638;49.760;8.646;2022-11-21T11:33:50;3.90;;;1.70;;
15077;SDS011;7638;49.760;8.646;2022-11-21T11:38:58;6.70;;;1.70;;
15077;SDS011;7638;49.760;8.646;2022-11-21T11:44:30;5.90;;;1.40;;
15077;SDS011;7638;49.760;8.646;2022-11-21T11:47:23;4.13;;;1.23;;
15077;SDS011;7638;49.760;8.646;2022-11-21T11:50:00;5.03;;;1.57;;
15077;SDS011;7638;49.760;8.646;2022-11-21T11:52:48;2.80;;;1.20;;
15077;SDS011;7638;49.760;8.646;2022-11-21T11:55:21;6.93;;;1.40;;
15077;SDS011;7638;49.760;8.646;2022-11-21T11:57:49;5.03;;;1.37;;
15077;SDS011;7638;49.760;8.646;2022-11-21T12:02:48;6.53;;;1.57;;
15077;SDS011;7638;49.760;8.646;2022-11-21T12:05:19;2.40;;;1.10;;
15077;SDS011;7638;49.760;8.646;2022-11-21T12:07:50;4.50;;;1.67;;
15077;SDS011;7638;49.760;8.646;2022-11-21T12:10:29;5.87;;;1.60;;
15077;SDS011;7638;49.760;8.646;2022-11-21T12:13:02;6.17;;;1.77;;
15077;SDS011;7638;49.760;8.646;2022-11-21T12:15:37;5.10;;;1.40;;
15077;SDS011;7638;49.760;8.646;2022-11-21T12:23:46;4.27;;;1.20;;
15077;SDS011;7638;49.760;8.646;2022-11-21T12:33:54;7.57;;;1.50;;
15077;SDS011;7638;49.760;8.646;2022-11-21T12:36:27;5.23;;;1.07;;
15077;SDS011;7638;49.760;8.646;2022-11-21T12:39:01;6.77;;;1.40;;
15077;SDS011;7638;49.760;8.646;2022-11-21T12:50:02;5.03;;;1.37;;
15077;SDS011;7638;49.760;8.646;2022-11-21T12:52:55;3.70;;;1.10;;
15077;SDS011;7638;49.760;8.646;2022-11-21T12:55:40;4.03;;;1.00;;
15077;SDS011;7638;49.760;8.646;2022-11-21T13:06:49;5.63;;;1.00;;
15077;SDS011;7638;49.760;8.646;2022-11-21T13:09:18;4.77;;;1.33;;
15077;SDS011;7638;49.760;8.646;2022-11-21T13:16:55;4.63;;;1.33;;
15077;SDS011;7638;49.760;8.646;2022-11-21T13:19:35;7.60;;;1.43;;
15077;SDS011;7638;49.760;8.646;2022-11-21T13:22:02;6.53;;;1.60;;
15077;SDS011;7638;49.760;8.646;2022-11-21T13:27:26;2.40;;;1.20;;
15077;SDS011;7638;49.760;8.646;2022-11-21T13:32:40;3.87;;;1.20;;
15077;SDS011;7638;49.760;8.646;2022-11-21T13:48:04;4.17;;;1.10;;
15077;SDS011;7638;49.760;8.646;2022-11-21T13:53:18;1.53;;;1.20;;
15077;SDS011;7638;49.760;8.646;2022-11-21T13:55:54;6.47;;;1.47;;
15077;SDS011;7638;49.760;8.646;2022-11-21T14:06:21;2.93;;;1.27;;
15077;SDS011;7638;49.760;8.646;2022-11-21T14:11:35;3.33;;;1.30;;
15077;SDS011;7638;49.760;8.646;2022-11-21T14:14:03;1.90;;;1.03;;
15077;SDS011;7638;49.760;8.646;2022-11-21T14:18:55;4.73;;;1.70;;
15077;SDS011;7638;49.760;8.646;2022-11-21T14:21:23;2.87;;;1.40;;
15077;SDS011;7638;49.760;8.646;2022-11-21T14:23:51;4.60;;;1.40;;
15077;SDS011;7638;49.760;8.646;2022-11-21T14:26:18;3.53;;;1.40;;
15077;SDS011;7638;49.760;8.646;2022-11-21T14:28:45;4.07;;;1.40;;
15077;SDS011;7638;49.760;8.646;2022-11-21T14:31:12;4.33;;;1.90;;
15077;SDS011;7638;49.760;8.646;2022-11-21T14:36:21;4.10;;;1.90;;
15077;SDS011;7638;49.760;8.646;2022-11-21T14:41:30;6.03;;;1.87;;
15077;SDS011;7638;49.760;8.646;2022-11-21T14:46:23;6.37;;;1.80;;
15077;SDS011;7638;49.760;8.646;2022-11-21T14:48:49;9.53;;;1.77;;
15077;SDS011;7638;49.760;8.646;2022-11-21T14:51:17;3.47;;;1.60;;
15077;SDS011;7638;49.760;8.646;2022-11-21T14:53:44;33.20;;;2.67;;
15077;SDS011;7638;49.760;8.646;2022-11-21T14:56:23;4.53;;;2.00;;
15077;SDS011;7638;49.760;8.646;2022-11-21T14:58:49;5.27;;;1.53;;
15077;SDS011;7638;49.760;8.646;2022-11-21T15:01:23;9.00;;;1.63;;
15077;SDS011;7638;49.760;8.646;2022-11-21T15:03:57;6.17;;;1.67;;
15077;SDS011;7638;49.760;8.646;2022-11-21T15:06:23;7.57;;;1.87;;
15077;SDS011;7638;49.760;8.646;2022-11-21T15:08:50;5.03;;;1.23;;
15077;SDS011;7638;49.760;8.646;2022-11-21T15:11:18;5.50;;;1.20;;
15077;SDS011;7638;49.760;8.646;2022-11-21T15:13:46;9.00;;;1.83;;
15077;SDS011;7638;49.760;8.646;2022-11-21T15:16:14;3.27;;;1.63;;
15077;SDS011;7638;49.760;8.646;2022-11-21T15:18:40;3.40;;;1.60;;
15077;SDS011;7638;49.760;8.646;2022-11-21T15:21:07;2.67;;;1.37;;
15077;SDS011;7638;49.760;8.646;2022-11-21T15:23:38;9.40;;;1.67;;
15077;SDS011;7638;49.760;8.646;2022-11-21T15:26:23;4.77;;;1.80;;
15077;SDS011;7638;49.760;8.646;2022-11-21T15:28:53;2.47;;;1.20;;
15077;SDS011;7638;49.760;8.646;2022-11-21T15:31:20;6.83;;;1.83;;
15077;SDS011;7638;49.760;8.646;2022-11-21T15:36:19;7.93;;;1.67;;
15077;SDS011;7638;49.760;8.646;2022-11-21T15:38:49;6.00;;;1.27;;
15077;SDS011;7638;49.760;8.646;2022-11-21T15:51:21;3.10;;;1.63;;
15077;SDS011;7638;49.760;8.646;2022-11-21T15:53:47;3.40;;;1.57;;
15077;SDS011;7638;49.760;8.646;2022-11-21T15:56:14;4.07;;;1.43;;
15077;SDS011;7638;49.760;8.646;2022-11-21T15:58:40;7.30;;;2.30;;
15077;SDS011;7638;49.760;8.646;2022-11-21T16:01:20;9.63;;;2.47;;
15077;SDS011;7638;49.760;8.646;2022-11-21T16:03:54;3.67;;;1.33;;
15077;SDS011;7638;49.760;8.646;2022-11-21T16:06:20;4.40;;;1.20;;
15077;SDS011;7638;49.760;8.646;2022-11-21T16:08:46;7.10;;;1.90;;
15077;SDS011;7638;49.760;8.646;2022-11-21T16:13:48;6.23;;;1.33;;
15077;SDS011;7638;49.760;8.646;2022-11-21T16:16:14;3.03;;;1.23;;
15077;SDS011;7638;49.760;8.646;2022-11-21T16:18:40;5.30;;;1.50;;
15077;SDS011;7638;49.760;8.646;2022-11-21T16:21:07;5.50;;;1.87;;
15077;SDS011;7638;49.760;8.646;2022-11-21T16:23:33;6.10;;;1.83;;
15077;SDS011;7638;49.760;8.646;2022-11-21T16:26:00;7.13;;;1.60;;
15077;SDS011;7638;49.760;8.646;2022-11-21T16:28:26;5.77;;;1.57;;
15077;SDS011;7638;49.760;8.646;2022-11-21T16:30:52;2.80;;;1.83;;
15077;SDS011;7638;49.760;8.646;2022-11-21T16:33:18;8.40;;;1.80;;
15077;SDS011;7638;49.760;8.646;2022-11-21T16:35:44;7.80;;;1.90;;
15077;SDS011;7638;49.760;8.646;2022-11-21T16:38:10;6.77;;;2.13;;
15077;SDS011;7638;49.760;8.646;2022-11-21T16:40:36;4.93;;;1.80;;
15077;SDS011;7638;49.760;8.646;2022-11-21T16:43:07;13.53;;;1.90;;
15077;SDS011;7638;49.760;8.646;2022-11-21T16:45:34;10.93;;;1.83;;
15077;SDS011;7638;49.760;8.646;2022-11-21T16:48:00;7.27;;;2.20;;
15077;SDS011;7638;49.760;8.646;2022-11-21T16:50:26;5.23;;;2.13;;
15077;SDS011;7638;49.760;8.646;2022-11-21T16:52:52;5.73;;;2.07;;
15077;SDS011;7638;49.760;8.646;2022-11-21T16:55:18;6.50;;;3.50;;
15077;SDS011;7638;49.760;8.646;2022-11-21T16:57:44;6.50;;;2.40;;
15077;SDS011;7638;49.760;8.646;2022-11-21T17:00:10;10.77;;;2.90;;
15077;SDS011;7638;49.760;8.646;2022-11-21T17:02:36;11.47;;;5.17;;
15077;SDS011;7638;49.760;8.646;2022-11-21T17:05:03;11.10;;;3.10;;
15077;SDS011;7638;49.760;8.646;2022-11-21T17:07:29;6.83;;;2.00;;
15077;SDS011;7638;49.760;8.646;2022-11-21T17:09:56;10.40;;;2.23;;
15077;SDS011;7638;49.760;8.646;2022-11-21T17:12:21;5.67;;;1.50;;
15077;SDS011;7638;49.760;8.646;2022-11-21T17:14:48;12.33;;;5.30;;
15077;SDS011;7638;49.760;8.646;2022-11-21T17:17:14;29.20;;;11.80;;
15077;SDS011;7638;49.760;8.646;2022-11-21T17:19:40;10.60;;;4.40;;
15077;SDS011;7638;49.760;8.646;2022-11-21T17:22:06;6.83;;;2.00;;
15077;SDS011;7638;49.760;8.646;2022-11-21T17:24:32;4.23;;;1.43;;
15077;SDS011;7638;49.760;8.646;2022-11-21T17:26:58;9.23;;;2.87;;
15077;SDS011;7638;49.760;8.646;2022-11-21T17:29:26;21.20;;;9.37;;
15077;SDS011;7638;49.760;8.646;2022-11-21T17:34:40;21.00;;;9.93;;